createdAt,value
2023-05-13T00:01:00.407Z,99.90
2023-05-13T00:03:28.828Z,99.90
2023-05-13T00:05:57.274Z,99.90
2023-05-13T00:08:27.020Z,99.90
2023-05-13T00:10:55.312Z,99.90
2023-05-13T00:13:23.695Z,99.90
2023-05-13T00:15:52.409Z,99.90
2023-05-13T00:18:20.982Z,99.90
2023-05-13T00:20:49.248Z,99.90
2023-05-13T00:23:17.655Z,99.90
2023-05-13T00:25:47.437Z,99.90
2023-05-13T00:28:15.675Z,99.90
2023-05-13T00:30:45.782Z,99.90
2023-05-13T00:33:14.269Z,99.90
2023-05-13T00:35:42.784Z,99.90
2023-05-13T00:38:11.322Z,99.90
2023-05-13T00:40:41.075Z,99.90
2023-05-13T00:43:10.908Z,99.90
2023-05-13T00:45:40.172Z,99.90
2023-05-13T00:48:08.777Z,99.90
2023-05-13T00:50:37.071Z,99.90
2023-05-13T00:53:05.761Z,99.90
2023-05-13T00:55:34.136Z,99.90
2023-05-13T00:58:02.555Z,99.90
2023-05-13T01:00:34.185Z,99.90
2023-05-13T01:03:07.252Z,99.90
2023-05-13T01:05:39.895Z,99.90
2023-05-13T01:08:12.807Z,99.90
2023-05-13T01:10:43.252Z,99.90
2023-05-13T01:13:13.351Z,99.90
2023-05-13T01:15:45.756Z,99.90
2023-05-13T01:18:16.307Z,99.90
2023-05-13T01:20:45.725Z,99.90
2023-05-13T01:23:15.507Z,99.90
2023-05-13T01:25:45.337Z,99.90
2023-05-13T01:28:14.584Z,99.90
2023-05-13T01:30:46.125Z,99.90
2023-05-13T01:33:14.636Z,99.90
2023-05-13T01:35:43.127Z,99.90
2023-05-13T01:38:13.230Z,99.90
2023-05-13T01:40:43.259Z,99.90
2023-05-13T01:43:11.524Z,99.90
2023-05-13T01:45:39.941Z,99.90
2023-05-13T01:48:08.972Z,99.90
2023-05-13T01:50:44.763Z,99.90
2023-05-13T01:53:13.239Z,99.90
2023-05-13T01:55:43.325Z,99.90
2023-05-13T01:58:11.726Z,99.90
2023-05-13T02:00:41.189Z,99.90
2023-05-13T02:03:09.659Z,99.90
2023-05-13T02:05:38.154Z,99.90
2023-05-13T02:08:09.110Z,99.90
2023-05-13T02:10:39.856Z,99.90
2023-05-13T02:13:09.837Z,99.90
2023-05-13T02:15:38.303Z,99.90
2023-05-13T02:18:06.790Z,99.90
2023-05-13T02:20:35.512Z,99.90
2023-05-13T02:23:03.847Z,99.90
2023-05-13T02:25:32.172Z,99.90
2023-05-13T02:28:01.259Z,99.90
2023-05-13T02:30:31.126Z,99.90
2023-05-13T02:32:59.674Z,99.90
2023-05-13T02:35:29.832Z,99.90
2023-05-13T02:37:59.216Z,99.90
2023-05-13T02:40:29.359Z,99.90
2023-05-13T02:42:58.315Z,99.90
2023-05-13T02:45:41.694Z,99.90
2023-05-13T02:48:12.146Z,99.90
2023-05-13T02:50:41.216Z,99.90
2023-05-13T02:53:11.137Z,99.90
2023-05-13T02:55:44.591Z,99.90
2023-05-13T02:58:12.923Z,99.90
2023-05-13T03:00:43.036Z,99.90
2023-05-13T03:03:11.504Z,99.90
2023-05-13T03:05:39.916Z,99.90
2023-05-13T03:08:08.381Z,99.90
2023-05-13T03:10:36.908Z,99.90
2023-05-13T03:13:05.310Z,99.90
2023-05-13T03:15:33.734Z,99.90
2023-05-13T03:18:03.559Z,99.90
2023-05-13T03:20:32.174Z,99.90
2023-05-13T03:23:01.444Z,99.90
2023-05-13T03:25:29.991Z,99.90
2023-05-13T03:27:59.888Z,99.90
2023-05-13T03:30:32.408Z,99.90
2023-05-13T03:33:07.807Z,99.90
2023-05-13T03:35:36.261Z,99.90
2023-05-13T03:38:04.804Z,99.90
2023-05-13T03:40:35.735Z,99.90
2023-05-13T03:43:04.121Z,99.90
2023-05-13T03:45:33.595Z,99.90
2023-05-13T03:48:08.861Z,99.90
2023-05-13T03:50:37.283Z,99.90
2023-05-13T03:53:05.850Z,99.90
2023-05-13T03:55:36.138Z,99.90
2023-05-13T03:58:23.529Z,99.90
2023-05-13T04:00:51.949Z,99.90
2023-05-13T04:03:21.689Z,99.90
2023-05-13T04:05:51.227Z,99.90
2023-05-13T04:08:19.858Z,99.90
2023-05-13T04:10:48.301Z,99.90
2023-05-13T04:13:16.592Z,99.90
2023-05-13T04:15:45.079Z,99.90
2023-05-13T04:18:13.379Z,99.90
2023-05-13T04:20:43.168Z,99.90
2023-05-13T04:23:11.610Z,99.90
2023-05-13T04:25:40.019Z,99.90
2023-05-13T04:28:08.449Z,99.90
2023-05-13T04:30:41.357Z,99.90
2023-05-13T04:33:09.960Z,99.90
2023-05-13T04:35:40.439Z,99.90
2023-05-13T04:38:10.857Z,99.90
2023-05-13T04:40:40.073Z,99.90
2023-05-13T04:43:12.199Z,99.90
2023-05-13T04:45:48.876Z,99.90
2023-05-13T04:48:17.635Z,99.90
2023-05-13T04:50:46.638Z,99.90
2023-05-13T04:53:18.155Z,99.90
2023-05-13T04:55:48.052Z,99.90
2023-05-13T04:58:16.749Z,99.90
2023-05-13T05:00:45.137Z,99.90
2023-05-13T05:03:14.511Z,99.90
2023-05-13T05:05:43.128Z,99.90
2023-05-13T05:08:13.046Z,99.90
2023-05-13T05:10:43.301Z,99.90
2023-05-13T05:13:13.088Z,99.90
2023-05-13T05:15:42.434Z,99.90
2023-05-13T05:18:11.841Z,99.90
2023-05-13T05:20:41.290Z,99.90
2023-05-13T05:23:15.790Z,99.90
2023-05-13T05:25:46.041Z,99.90
2023-05-13T05:28:14.519Z,99.90
2023-05-13T05:30:45.605Z,99.90
2023-05-13T05:33:24.441Z,99.90
2023-05-13T05:35:52.782Z,99.90
2023-05-13T05:38:25.355Z,99.90
2023-05-13T05:41:05.811Z,99.90
2023-05-13T05:43:34.189Z,99.90
2023-05-13T05:46:02.593Z,99.90
2023-05-13T05:48:33.798Z,99.90
2023-05-13T05:51:03.629Z,99.90
2023-05-13T05:53:37.693Z,99.90
2023-05-13T05:56:09.175Z,99.90
2023-05-13T05:58:37.533Z,99.90
2023-05-13T06:01:06.111Z,99.90
2023-05-13T06:03:34.808Z,99.90
2023-05-13T06:06:03.491Z,99.90
2023-05-13T06:08:32.547Z,99.90
2023-05-13T06:11:01.024Z,99.90
2023-05-13T06:13:30.947Z,99.90
2023-05-13T06:15:59.473Z,99.40
2023-05-13T06:18:27.934Z,99.20
2023-05-13T06:20:56.254Z,98.00
2023-05-13T06:23:24.617Z,99.90
2023-05-13T06:25:53.352Z,99.90
2023-05-13T06:28:21.781Z,99.90
2023-05-13T06:30:54.614Z,99.90
2023-05-13T06:33:23.059Z,99.90
2023-05-13T06:35:51.459Z,99.90
2023-05-13T06:38:22.570Z,99.90
2023-05-13T06:40:54.876Z,99.90
2023-05-13T06:43:29.434Z,99.90
2023-05-13T06:46:10.245Z,99.90
2023-05-13T06:48:38.672Z,99.90
2023-05-13T06:51:07.300Z,99.60
2023-05-13T06:53:35.634Z,98.60
2023-05-13T06:56:04.087Z,98.90
2023-05-13T06:58:32.425Z,99.00
2023-05-13T07:01:00.855Z,99.80
2023-05-13T07:03:30.528Z,99.30
2023-05-13T07:05:58.895Z,99.30
2023-05-13T07:08:27.261Z,99.60
2023-05-13T07:10:55.522Z,99.80
2023-05-13T07:13:23.846Z,99.80
2023-05-13T07:15:52.134Z,99.50
2023-05-13T07:18:20.533Z,99.80
2023-05-13T07:20:50.310Z,99.40
2023-05-13T07:23:18.621Z,98.90
2023-05-13T07:25:46.912Z,98.20
2023-05-13T07:28:15.194Z,98.00
2023-05-13T07:30:43.496Z,98.00
2023-05-13T07:33:11.817Z,97.80
2023-05-13T07:35:40.164Z,97.50
2023-05-13T07:38:10.508Z,97.20
2023-05-13T07:40:39.309Z,97.30
2023-05-13T07:43:07.549Z,96.30
2023-05-13T07:45:35.984Z,97.10
2023-05-13T07:48:04.380Z,97.30
2023-05-13T07:50:32.695Z,96.80
2023-05-13T07:53:01.005Z,96.00
2023-05-13T07:55:30.804Z,96.60
2023-05-13T07:58:01.955Z,96.50
2023-05-13T08:00:30.296Z,96.70
2023-05-13T08:02:58.615Z,96.70
2023-05-13T08:05:27.046Z,96.40
2023-05-13T08:07:55.365Z,95.90
2023-05-13T08:10:23.644Z,96.30
2023-05-13T08:12:57.748Z,95.90
2023-05-13T08:15:26.272Z,96.00
2023-05-13T08:17:54.746Z,95.70
2023-05-13T08:20:29.907Z,95.60
2023-05-13T08:22:58.725Z,95.90
2023-05-13T08:25:27.137Z,94.90
2023-05-13T08:27:56.904Z,94.70
2023-05-13T08:30:25.155Z,94.80
2023-05-13T08:32:53.517Z,94.80
2023-05-13T08:35:22.078Z,94.20
2023-05-13T08:37:50.546Z,93.90
2023-05-13T08:40:18.934Z,93.60
2023-05-13T08:42:50.270Z,93.30
2023-05-13T08:45:21.424Z,93.30
2023-05-13T08:47:51.767Z,93.10
2023-05-13T08:50:20.598Z,93.00
2023-05-13T08:52:48.896Z,93.30
2023-05-13T08:55:17.418Z,93.60
2023-05-13T08:57:45.911Z,92.30
2023-05-13T09:00:15.277Z,92.90
2023-05-13T09:02:45.158Z,92.60
2023-05-13T09:05:13.655Z,93.00
2023-05-13T09:07:41.936Z,92.90
2023-05-13T09:10:10.828Z,93.10
2023-05-13T09:12:45.893Z,93.30
2023-05-13T09:15:14.915Z,93.40
2023-05-13T09:17:45.620Z,93.10
2023-05-13T09:20:15.179Z,92.60
2023-05-13T09:22:45.938Z,92.50
2023-05-13T09:25:15.052Z,91.90
2023-05-13T09:27:43.911Z,91.80
2023-05-13T09:30:12.718Z,91.70
2023-05-13T09:32:42.386Z,91.20
2023-05-13T09:35:16.706Z,90.70
2023-05-13T09:37:45.999Z,90.80
2023-05-13T09:40:14.897Z,90.80
2023-05-13T09:42:43.753Z,90.10
2023-05-13T09:45:13.094Z,90.40
2023-05-13T09:47:41.985Z,90.00
2023-05-13T09:50:10.956Z,91.00
2023-05-13T09:52:40.652Z,91.50
2023-05-13T09:55:10.648Z,91.40
2023-05-13T09:57:39.916Z,90.70
2023-05-13T10:00:17.859Z,90.50
2023-05-13T10:02:49.920Z,90.70
2023-05-13T10:05:18.425Z,91.40
2023-05-13T10:07:48.167Z,92.50
2023-05-13T10:10:16.441Z,94.30
2023-05-13T10:12:44.950Z,95.10
2023-05-13T10:15:13.398Z,96.10
2023-05-13T10:17:42.897Z,97.20
2023-05-13T10:20:11.656Z,96.40
2023-05-13T10:22:40.290Z,96.60
2023-05-13T10:25:11.546Z,95.10
2023-05-13T10:27:40.971Z,93.60
2023-05-13T10:30:10.756Z,95.00
2023-05-13T10:32:40.078Z,94.40
2023-05-13T10:35:09.904Z,94.30
2023-05-13T10:37:49.028Z,93.90
2023-05-13T10:40:26.188Z,94.80
2023-05-13T10:42:57.587Z,95.40
2023-05-13T10:45:27.372Z,93.60
2023-05-13T10:47:56.406Z,94.40
2023-05-13T10:50:25.300Z,95.10
2023-05-13T10:52:57.120Z,94.90
2023-05-13T10:55:28.021Z,95.90
2023-05-13T10:58:05.180Z,96.50
2023-05-13T11:00:34.003Z,97.00
2023-05-13T11:03:10.318Z,96.50
2023-05-13T11:05:40.087Z,96.60
2023-05-13T11:08:08.414Z,97.50
2023-05-13T11:10:38.083Z,98.20
2023-05-13T11:13:10.321Z,98.60
2023-05-13T11:15:44.889Z,98.90
2023-05-13T11:18:13.502Z,97.60
2023-05-13T11:20:51.649Z,96.60
2023-05-13T11:23:20.843Z,95.50
2023-05-13T11:26:12.000Z,93.80
2023-05-13T11:28:56.957Z,94.30
2023-05-13T11:31:25.589Z,93.60
2023-05-13T11:34:13.275Z,94.30
2023-05-13T11:36:42.118Z,93.70
2023-05-13T11:39:12.493Z,93.90
2023-05-13T11:41:46.036Z,92.80
2023-05-13T11:44:15.329Z,93.20
2023-05-13T11:46:54.105Z,93.70
2023-05-13T11:49:35.331Z,93.00
2023-05-13T11:52:04.300Z,93.70
2023-05-13T11:54:32.604Z,93.90
2023-05-13T11:57:03.897Z,91.90
2023-05-13T11:59:41.739Z,92.40
2023-05-13T12:02:16.207Z,92.80
2023-05-13T12:04:45.369Z,92.80
2023-05-13T12:07:13.763Z,93.30
2023-05-13T12:09:42.126Z,93.30
2023-05-13T12:12:11.952Z,92.90
2023-05-13T12:14:40.533Z,92.50
2023-05-13T12:17:08.802Z,92.80
2023-05-13T12:19:37.539Z,91.50
2023-05-13T12:22:06.536Z,91.10
2023-05-13T12:24:35.085Z,91.30
2023-05-13T12:27:09.434Z,91.90
2023-05-13T12:29:44.483Z,91.10
2023-05-13T12:32:13.152Z,91.10
2023-05-13T12:34:41.411Z,90.90
2023-05-13T12:37:13.455Z,90.80
2023-05-13T12:39:42.816Z,90.70
2023-05-13T12:42:17.510Z,90.00
2023-05-13T12:44:47.280Z,89.80
2023-05-13T12:47:15.875Z,90.50
2023-05-13T12:50:02.630Z,91.20
2023-05-13T12:52:30.937Z,89.20
2023-05-13T12:54:59.349Z,90.40
2023-05-13T12:57:30.512Z,90.20
2023-05-13T13:00:01.289Z,90.10
2023-05-13T13:02:29.699Z,90.00
2023-05-13T13:04:58.148Z,90.10
2023-05-13T13:07:26.494Z,90.20
2023-05-13T13:09:55.413Z,88.30
2023-05-13T13:12:23.735Z,89.00
2023-05-13T13:14:52.172Z,89.70
2023-05-13T13:17:21.905Z,88.50
2023-05-13T13:19:50.148Z,90.10
2023-05-13T13:22:18.432Z,88.70
2023-05-13T13:24:46.796Z,89.50
2023-05-13T13:27:15.054Z,89.90
2023-05-13T13:29:43.374Z,90.10
2023-05-13T13:32:11.735Z,90.20
2023-05-13T13:34:41.431Z,89.80
2023-05-13T13:37:09.794Z,90.30
2023-05-13T13:39:38.103Z,90.40
2023-05-13T13:42:06.629Z,90.20
2023-05-13T13:44:36.823Z,90.00
2023-05-13T13:47:05.378Z,90.40
2023-05-13T13:49:33.608Z,90.40
2023-05-13T13:52:03.321Z,90.80
2023-05-13T13:54:31.707Z,90.00
2023-05-13T13:57:00.039Z,89.40
2023-05-13T13:59:28.296Z,89.60
2023-05-13T14:01:57.030Z,89.10
2023-05-13T14:04:27.832Z,89.30
2023-05-13T14:06:56.640Z,90.10
2023-05-13T14:09:26.520Z,89.60
2023-05-13T14:11:54.827Z,88.20
2023-05-13T14:14:24.883Z,88.90
2023-05-13T14:16:53.315Z,89.70
2023-05-13T14:19:21.576Z,90.00
2023-05-13T14:21:49.940Z,90.00
2023-05-13T14:24:18.275Z,89.70
2023-05-13T14:26:48.081Z,90.00
2023-05-13T14:29:16.359Z,88.80
2023-05-13T14:31:44.660Z,89.10
2023-05-13T14:34:12.953Z,88.70
2023-05-13T14:36:41.273Z,88.50
2023-05-13T14:39:10.749Z,87.70
2023-05-13T14:41:40.979Z,87.50
2023-05-13T14:44:10.742Z,87.00
2023-05-13T14:46:40.514Z,86.90
2023-05-13T14:49:09.414Z,85.90
2023-05-13T14:51:37.689Z,85.50
2023-05-13T14:54:06.105Z,85.60
2023-05-13T14:56:34.445Z,84.40
2023-05-13T14:59:03.452Z,82.80
2023-05-13T15:01:33.254Z,81.50
2023-05-13T15:04:01.633Z,80.80
2023-05-13T15:06:30.884Z,81.80
2023-05-13T15:08:59.299Z,84.50
2023-05-13T15:11:28.150Z,86.10
2023-05-13T15:13:56.719Z,86.80
2023-05-13T15:16:25.087Z,87.40
2023-05-13T15:18:54.821Z,86.50
2023-05-13T15:21:23.101Z,85.90
2023-05-13T15:23:51.439Z,86.60
2023-05-13T15:26:20.366Z,87.50
2023-05-13T15:28:48.633Z,87.00
2023-05-13T15:31:17.069Z,85.60
2023-05-13T15:33:45.490Z,86.10
2023-05-13T15:36:15.122Z,85.40
2023-05-13T15:38:43.465Z,84.60
2023-05-13T15:41:11.773Z,84.60
2023-05-13T15:43:40.064Z,83.70
2023-05-13T15:46:08.674Z,83.70
2023-05-13T15:48:37.739Z,84.00
2023-05-13T15:51:07.034Z,83.40
2023-05-13T15:53:36.724Z,83.60
2023-05-13T15:56:04.997Z,83.80
2023-05-13T15:58:33.329Z,83.80
2023-05-13T16:01:01.606Z,83.40
2023-05-13T16:03:29.894Z,85.10
2023-05-13T16:05:58.292Z,84.80
2023-05-13T16:08:26.677Z,85.20
2023-05-13T16:10:56.366Z,85.90
2023-05-13T16:13:24.721Z,86.00
2023-05-13T16:15:54.072Z,87.20
2023-05-13T16:18:22.421Z,88.00
2023-05-13T16:20:51.227Z,88.10
2023-05-13T16:23:19.565Z,89.00
2023-05-13T16:25:47.952Z,89.20
2023-05-13T16:28:17.860Z,89.80
2023-05-13T16:30:46.277Z,89.50
2023-05-13T16:33:16.025Z,89.90
2023-05-13T16:35:44.383Z,90.10
2023-05-13T16:38:12.798Z,90.50
2023-05-13T16:40:41.151Z,90.50
2023-05-13T16:43:09.453Z,90.50
2023-05-13T16:45:40.020Z,90.20
2023-05-13T16:48:08.401Z,90.20
2023-05-13T16:50:37.363Z,90.40
2023-05-13T16:53:05.856Z,90.20
2023-05-13T16:55:34.132Z,90.20
2023-05-13T16:58:02.468Z,90.30
2023-05-13T17:00:30.716Z,90.40
2023-05-13T17:03:01.451Z,90.00
2023-05-13T17:05:30.173Z,90.00
2023-05-13T17:07:58.563Z,89.60
2023-05-13T17:10:26.864Z,88.10
2023-05-13T17:12:56.466Z,87.60
2023-05-13T17:15:26.509Z,88.00
2023-05-13T17:17:54.802Z,87.30
2023-05-13T17:20:24.755Z,87.10
2023-05-13T17:22:53.253Z,87.30
2023-05-13T17:25:21.482Z,86.90
2023-05-13T17:27:49.740Z,86.80
2023-05-13T17:30:18.148Z,86.10
2023-05-13T17:32:46.499Z,86.10
2023-05-13T17:35:14.863Z,86.40
2023-05-13T17:37:44.755Z,86.50
2023-05-13T17:40:13.537Z,86.80
2023-05-13T17:42:41.758Z,86.30
2023-05-13T17:45:10.479Z,86.40
2023-05-13T17:47:38.869Z,85.90
2023-05-13T17:50:07.923Z,86.40
2023-05-13T17:52:36.345Z,86.30
2023-05-13T17:55:06.567Z,87.00
2023-05-13T17:57:34.838Z,87.30
2023-05-13T18:00:06.645Z,87.50
2023-05-13T18:02:36.326Z,88.40
2023-05-13T18:05:04.902Z,88.30
2023-05-13T18:07:33.129Z,88.60
2023-05-13T18:10:01.421Z,89.00
2023-05-13T18:12:31.228Z,89.70
2023-05-13T18:14:59.508Z,90.00
2023-05-13T18:17:27.808Z,90.20
2023-05-13T18:19:56.175Z,90.50
2023-05-13T18:22:24.612Z,90.80
2023-05-13T18:24:52.874Z,90.70
2023-05-13T18:27:21.635Z,91.00
2023-05-13T18:29:51.937Z,91.50
2023-05-13T18:32:20.287Z,91.60
2023-05-13T18:34:48.528Z,91.80
2023-05-13T18:37:16.836Z,92.10
2023-05-13T18:39:45.983Z,92.30
2023-05-13T18:42:14.257Z,92.30
2023-05-13T18:44:42.490Z,92.60
2023-05-13T18:47:12.349Z,92.90
2023-05-13T18:49:40.960Z,93.40
2023-05-13T18:52:09.362Z,93.60
2023-05-13T18:54:38.137Z,93.70
2023-05-13T18:57:06.782Z,93.80
2023-05-13T18:59:35.054Z,94.30
2023-05-13T19:02:03.566Z,94.40
2023-05-13T19:04:33.639Z,94.60
2023-05-13T19:07:02.257Z,94.60
2023-05-13T19:09:30.553Z,94.60
2023-05-13T19:11:58.901Z,94.90
2023-05-13T19:14:27.145Z,94.90
2023-05-13T19:16:56.310Z,94.90
2023-05-13T19:19:25.521Z,95.00
2023-05-13T19:21:55.185Z,95.20
2023-05-13T19:24:23.425Z,95.30
2023-05-13T19:26:51.739Z,95.70
2023-05-13T19:29:20.000Z,95.50
2023-05-13T19:31:48.642Z,95.60
2023-05-13T19:34:16.913Z,95.70
2023-05-13T19:36:46.014Z,96.00
2023-05-13T19:39:15.769Z,96.00
2023-05-13T19:41:44.124Z,96.10
2023-05-13T19:44:12.646Z,95.90
2023-05-13T19:46:41.436Z,96.10
2023-05-13T19:49:10.172Z,96.10
2023-05-13T19:51:38.482Z,96.30
2023-05-13T19:54:09.624Z,96.20
2023-05-13T19:56:39.357Z,96.20
2023-05-13T19:59:07.787Z,96.20
2023-05-13T20:01:37.777Z,96.20
2023-05-13T20:04:06.426Z,96.10
2023-05-13T20:06:34.836Z,96.30
2023-05-13T20:09:03.145Z,96.40
2023-05-13T20:11:31.630Z,96.30
2023-05-13T20:14:01.698Z,96.40
2023-05-13T20:16:29.983Z,96.30
2023-05-13T20:18:58.412Z,96.60
2023-05-13T20:21:26.760Z,96.90
2023-05-13T20:23:55.020Z,97.30
2023-05-13T20:26:25.858Z,97.50
2023-05-13T20:28:54.272Z,97.90
2023-05-13T20:31:23.994Z,97.60
2023-05-13T20:33:52.402Z,97.60
2023-05-13T20:36:20.738Z,97.60
2023-05-13T20:38:49.057Z,97.50
2023-05-13T20:41:17.297Z,97.60
2023-05-13T20:43:45.629Z,97.60
2023-05-13T20:46:16.976Z,97.50
2023-05-13T20:48:48.011Z,97.40
2023-05-13T20:51:17.034Z,97.40
2023-05-13T20:53:46.638Z,97.20
2023-05-13T20:56:14.929Z,97.10
2023-05-13T20:58:43.246Z,97.10
2023-05-13T21:01:11.631Z,97.00
2023-05-13T21:03:40.014Z,96.70
2023-05-13T21:06:09.880Z,96.90
2023-05-13T21:08:40.199Z,97.00
2023-05-13T21:11:08.586Z,96.90
2023-05-13T21:13:36.997Z,96.30
2023-05-13T21:16:05.837Z,95.40
2023-05-13T21:18:34.281Z,95.80
2023-05-13T21:21:08.516Z,95.80
2023-05-13T21:23:39.923Z,95.90
2023-05-13T21:26:08.492Z,95.40
2023-05-13T21:28:36.808Z,95.20
2023-05-13T21:31:05.294Z,95.30
2023-05-13T21:33:34.033Z,95.10
2023-05-13T21:36:02.259Z,94.90
2023-05-13T21:38:30.700Z,95.60
2023-05-13T21:41:00.469Z,95.70
2023-05-13T21:43:28.783Z,96.30
2023-05-13T21:45:57.031Z,97.50
2023-05-13T21:48:25.339Z,97.80
2023-05-13T21:50:54.012Z,98.80
2023-05-13T21:53:22.520Z,98.70
2023-05-13T21:55:50.805Z,99.30
2023-05-13T21:58:23.141Z,99.60
2023-05-13T22:00:53.815Z,99.70
2023-05-13T22:03:22.220Z,99.80
2023-05-13T22:05:50.533Z,99.90
2023-05-13T22:08:18.908Z,99.90
2023-05-13T22:10:47.125Z,99.90
2023-05-13T22:13:15.713Z,99.90
2023-05-13T22:15:45.610Z,99.90
2023-05-13T22:18:14.994Z,99.90
2023-05-13T22:20:43.348Z,99.90
2023-05-13T22:23:11.625Z,99.90
2023-05-13T22:25:39.948Z,99.90
2023-05-13T22:28:08.382Z,99.90
2023-05-13T22:30:36.656Z,99.90
2023-05-13T22:33:06.662Z,99.90
2023-05-13T22:35:36.544Z,99.90
2023-05-13T22:38:05.268Z,99.90
2023-05-13T22:40:33.505Z,99.90
2023-05-13T22:43:01.862Z,99.90
2023-05-13T22:45:30.265Z,99.90
2023-05-13T22:47:58.581Z,99.90
2023-05-13T22:50:28.344Z,99.90
2023-05-13T22:52:57.279Z,99.90
2023-05-13T22:55:25.561Z,99.90
2023-05-13T22:57:53.800Z,99.90
2023-05-13T23:00:22.218Z,99.90
2023-05-13T23:02:50.803Z,99.90
2023-05-13T23:05:19.290Z,99.90
2023-05-13T23:07:49.263Z,99.90
2023-05-13T23:10:17.602Z,99.90
2023-05-13T23:12:45.904Z,99.90
2023-05-13T23:17:44.716Z,99.90
2023-05-13T23:20:13.331Z,99.90
2023-05-13T23:22:42.026Z,99.90
2023-05-13T23:25:12.179Z,99.90
2023-05-13T23:27:40.506Z,99.90
2023-05-13T23:30:09.372Z,99.90
2023-05-13T23:32:37.658Z,99.90
2023-05-13T23:35:06.620Z,99.90
2023-05-13T23:37:34.845Z,99.90
2023-05-13T23:40:03.207Z,99.90
2023-05-13T23:42:32.938Z,99.90
2023-05-13T23:45:01.220Z,99.90
2023-05-13T23:47:30.965Z,99.90
2023-05-13T23:49:59.260Z,99.90
2023-05-13T23:52:27.546Z,99.90
2023-05-13T23:54:55.850Z,99.90
2023-05-13T23:57:24.124Z,99.90
2023-05-13T23:59:53.855Z,99.90
